createdAt,value
2023-01-11T00:01:26.592Z,2.07
2023-01-11T00:04:30.845Z,2.11
2023-01-11T00:07:35.106Z,2.00
2023-01-11T00:10:39.238Z,1.88
2023-01-11T00:13:43.035Z,2.18
2023-01-11T00:16:47.207Z,2.10
2023-01-11T00:26:35.161Z,2.19
2023-01-11T00:29:42.206Z,2.19
2023-01-11T00:32:46.263Z,2.04
2023-01-11T00:35:50.568Z,2.30
2023-01-11T00:38:54.418Z,2.06
2023-01-11T00:41:58.338Z,1.99
2023-01-11T00:45:02.443Z,2.14
2023-01-11T00:48:06.714Z,1.96
2023-01-11T00:51:11.050Z,2.11
2023-01-11T00:54:15.083Z,2.07
2023-01-11T00:57:18.874Z,1.91
2023-01-11T01:00:22.788Z,1.98
2023-01-11T01:03:27.104Z,2.04
2023-01-11T01:06:30.959Z,2.06
2023-01-11T01:09:34.651Z,2.03
2023-01-11T01:12:39.066Z,2.03
2023-01-11T01:15:43.126Z,1.98
2023-01-11T01:18:47.200Z,2.09
2023-01-11T01:21:51.020Z,2.19
2023-01-11T01:24:54.988Z,2.19
2023-01-11T01:27:58.877Z,2.32
2023-01-11T01:31:02.820Z,2.57
2023-01-11T01:34:06.856Z,2.38
2023-01-11T01:37:10.704Z,2.23
2023-01-11T01:40:14.647Z,2.14
2023-01-11T01:43:18.656Z,2.23
2023-01-11T01:46:22.600Z,2.14
2023-01-11T01:49:26.461Z,2.23
2023-01-11T01:52:30.558Z,2.34
2023-01-11T01:55:34.677Z,2.36
2023-01-11T01:58:38.675Z,2.52
2023-01-11T02:01:42.633Z,2.19
2023-01-11T02:04:46.683Z,2.23
2023-01-11T02:07:50.525Z,2.19
2023-01-11T02:10:54.543Z,2.25
2023-01-11T02:13:58.363Z,2.30
2023-01-11T02:17:02.283Z,2.50
2023-01-11T02:20:06.211Z,2.42
2023-01-11T02:23:10.235Z,2.47
2023-01-11T02:26:14.179Z,2.36
2023-01-11T02:29:18.114Z,2.36
2023-01-11T02:32:22.053Z,2.57
2023-01-11T02:35:25.951Z,2.43
2023-01-11T02:38:30.141Z,2.48
2023-01-11T02:41:34.108Z,2.33
2023-01-11T02:44:37.835Z,2.51
2023-01-11T02:47:42.567Z,2.55
2023-01-11T02:50:46.509Z,2.32
2023-01-11T02:53:50.570Z,2.42
2023-01-11T02:56:54.435Z,2.22
2023-01-11T02:59:58.303Z,2.16
2023-01-11T03:03:02.519Z,2.12
2023-01-11T03:06:06.335Z,2.06
2023-01-11T03:09:10.187Z,2.07
2023-01-11T03:12:14.075Z,1.96
2023-01-11T03:15:18.215Z,1.89
2023-01-11T03:18:22.166Z,1.88
2023-01-11T03:21:26.217Z,1.94
2023-01-11T03:24:30.040Z,2.08
2023-01-11T03:27:33.975Z,1.88
2023-01-11T03:30:38.059Z,1.86
2023-01-11T03:33:42.026Z,1.87
2023-01-11T03:36:45.967Z,1.96
2023-01-11T03:39:49.841Z,1.74
2023-01-11T03:42:54.036Z,1.82
2023-01-11T03:45:58.041Z,1.78
2023-01-11T03:49:02.083Z,1.85
2023-01-11T03:52:06.142Z,1.81
2023-01-11T03:55:10.052Z,1.60
2023-01-11T03:58:14.113Z,1.81
2023-01-11T04:01:17.884Z,1.71
2023-01-11T04:04:21.827Z,1.86
2023-01-11T04:07:25.630Z,1.92
2023-01-11T04:10:29.896Z,2.00
2023-01-11T04:13:33.778Z,2.01
2023-01-11T04:16:38.032Z,2.06
2023-01-11T04:19:41.973Z,2.24
2023-01-11T04:22:46.071Z,1.93
2023-01-11T04:25:50.132Z,2.10
2023-01-11T04:28:54.506Z,1.80
2023-01-11T04:31:58.613Z,1.97
2023-01-11T04:35:02.361Z,1.83
2023-01-11T04:38:06.433Z,2.04
2023-01-11T04:41:10.491Z,1.93
2023-01-11T04:44:14.526Z,1.78
2023-01-11T04:47:18.581Z,1.91
2023-01-11T04:50:22.593Z,1.73
2023-01-11T04:53:26.576Z,1.80
2023-01-11T04:56:30.663Z,1.73
2023-01-11T04:59:34.550Z,1.75
2023-01-11T05:02:38.307Z,1.57
2023-01-11T05:05:42.186Z,1.44
2023-01-11T05:08:46.524Z,1.55
2023-01-11T05:11:50.639Z,1.44
2023-01-11T05:14:54.558Z,1.37
2023-01-11T05:17:58.475Z,1.34
2023-01-11T05:21:02.589Z,1.45
2023-01-11T05:24:06.559Z,1.33
2023-01-11T05:27:10.419Z,1.34
2023-01-11T05:30:14.448Z,1.50
2023-01-11T05:33:18.313Z,1.37
2023-01-11T05:36:22.490Z,1.28
2023-01-11T05:39:26.342Z,1.43
2023-01-11T05:42:30.579Z,1.50
2023-01-11T05:45:34.753Z,1.51
2023-01-11T05:48:38.697Z,1.40
2023-01-11T05:51:43.123Z,1.38
2023-01-11T05:54:47.189Z,1.60
2023-01-11T05:57:51.230Z,1.55
2023-01-11T06:00:55.297Z,1.42
2023-01-11T06:03:59.547Z,1.61
2023-01-11T06:07:03.731Z,1.43
2023-01-11T06:10:07.601Z,1.43
2023-01-11T06:13:11.552Z,1.45
2023-01-11T06:16:16.006Z,1.43
2023-01-11T06:19:20.132Z,1.41
2023-01-11T06:22:24.117Z,1.61
2023-01-11T06:25:28.011Z,1.57
2023-01-11T06:28:34.098Z,1.89
2023-01-11T06:31:38.069Z,1.81
2023-01-11T06:34:42.244Z,1.65
2023-01-11T06:37:46.206Z,1.70
2023-01-11T06:40:49.913Z,1.68
2023-01-11T06:43:53.878Z,1.69
2023-01-11T06:46:57.974Z,1.91
2023-01-11T06:50:01.913Z,1.69
2023-01-11T06:53:05.787Z,1.98
2023-01-11T06:56:09.924Z,1.83
2023-01-11T06:59:13.684Z,1.96
2023-01-11T07:02:18.091Z,1.92
2023-01-11T07:05:22.117Z,1.87
2023-01-11T07:08:26.133Z,2.07
2023-01-11T07:11:32.399Z,1.99
2023-01-11T07:14:36.461Z,1.95
2023-01-11T07:17:40.764Z,1.85
2023-01-11T07:20:44.874Z,1.94
2023-01-11T07:23:48.761Z,2.00
2023-01-11T07:26:52.800Z,1.98
2023-01-11T07:29:56.791Z,2.03
2023-01-11T07:33:00.643Z,1.75
2023-01-11T07:36:04.667Z,1.99
2023-01-11T07:39:08.691Z,2.11
2023-01-11T07:42:14.616Z,1.80
2023-01-11T07:45:19.128Z,1.79
2023-01-11T07:48:23.320Z,1.76
2023-01-11T07:51:27.372Z,1.70
2023-01-11T07:54:31.434Z,1.79
2023-01-11T07:57:35.375Z,1.80
2023-01-11T08:00:39.669Z,1.82
2023-01-11T08:03:43.918Z,1.78
2023-01-11T08:06:47.783Z,1.90
2023-01-11T08:09:51.690Z,1.79
2023-01-11T08:12:55.768Z,1.75
2023-01-11T08:16:00.035Z,1.82
2023-01-11T08:19:03.694Z,1.92
2023-01-11T08:22:07.772Z,1.80
2023-01-11T08:25:11.702Z,1.67
2023-01-11T08:28:15.828Z,1.59
2023-01-11T08:31:20.292Z,1.57
2023-01-11T08:34:24.140Z,1.60
2023-01-11T08:37:28.154Z,1.49
2023-01-11T08:40:32.306Z,1.74
2023-01-11T08:43:36.586Z,1.79
2023-01-11T08:46:40.849Z,1.77
2023-01-11T08:49:45.147Z,1.71
2023-01-11T08:52:49.240Z,1.65
2023-01-11T08:55:53.210Z,1.49
2023-01-11T08:58:57.766Z,1.80
2023-01-11T09:02:02.073Z,1.62
2023-01-11T09:05:05.697Z,1.63
2023-01-11T09:08:09.439Z,1.42
2023-01-11T09:11:13.745Z,1.54
2023-01-11T09:14:17.881Z,1.46
2023-01-11T09:17:21.776Z,1.54
2023-01-11T09:20:25.805Z,1.70
2023-01-11T09:23:29.909Z,1.65
2023-01-11T09:26:34.081Z,1.61
2023-01-11T09:29:38.297Z,1.24
2023-01-11T09:32:41.862Z,1.47
2023-01-11T09:35:45.950Z,1.50
2023-01-11T09:38:50.031Z,1.24
2023-01-11T09:41:54.030Z,1.30
2023-01-11T09:44:58.214Z,1.31
2023-01-11T09:48:02.116Z,1.26
2023-01-11T09:51:05.938Z,1.06
2023-01-11T09:54:09.929Z,1.32
2023-01-11T09:57:13.877Z,1.21
2023-01-11T10:00:17.819Z,1.18
2023-01-11T10:03:21.813Z,1.30
2023-01-11T10:06:26.203Z,1.54
2023-01-11T10:18:28.172Z,1.58
2023-01-11T10:19:42.166Z,1.31
2023-01-11T10:22:46.464Z,1.37
2023-01-11T10:25:50.476Z,1.47
2023-01-11T10:28:54.452Z,1.26
2023-01-11T10:31:58.577Z,1.29
2023-01-11T10:35:02.546Z,1.21
2023-01-11T10:38:06.605Z,1.22
2023-01-11T10:41:10.596Z,1.32
2023-01-11T10:44:15.002Z,1.24
2023-01-11T10:47:18.877Z,1.29
2023-01-11T10:50:23.092Z,1.18
2023-01-11T10:53:27.000Z,1.38
2023-01-11T10:56:30.792Z,1.65
2023-01-11T10:59:34.874Z,1.60
2023-01-11T11:02:39.077Z,1.53
2023-01-11T11:05:43.270Z,1.41
2023-01-11T11:08:48.332Z,2.17
2023-01-11T11:11:52.341Z,1.51
2023-01-11T11:14:56.693Z,1.70
2023-01-11T11:18:00.882Z,1.90
2023-01-11T11:21:05.223Z,1.91
2023-01-11T11:24:09.310Z,3.25
2023-01-11T11:27:13.366Z,2.12
2023-01-11T11:30:17.189Z,2.10
2023-01-11T11:33:21.465Z,2.06
2023-01-11T11:36:25.363Z,2.06
2023-01-11T11:39:29.389Z,2.14
2023-01-11T11:42:33.314Z,3.97
2023-01-11T11:45:37.384Z,2.99
2023-01-11T11:48:41.980Z,2.91
2023-01-11T11:51:46.090Z,2.56
2023-01-11T11:54:50.053Z,2.39
2023-01-11T11:57:54.020Z,2.55
2023-01-11T12:00:58.112Z,2.87
2023-01-11T12:04:05.185Z,2.92
2023-01-11T12:07:09.380Z,2.73
2023-01-11T12:10:13.253Z,2.84
2023-01-11T12:13:16.951Z,3.01
2023-01-11T12:16:21.203Z,3.13
2023-01-11T12:19:25.217Z,3.27
2023-01-11T12:22:29.404Z,3.02
2023-01-11T12:25:33.327Z,2.78
2023-01-11T12:28:37.258Z,2.92
2023-01-11T12:31:41.479Z,2.94
2023-01-11T12:34:45.498Z,2.86
2023-01-11T12:37:49.668Z,2.92
2023-01-11T12:40:53.428Z,2.95
2023-01-11T12:43:57.385Z,2.90
2023-01-11T12:47:01.474Z,3.09
2023-01-11T12:50:05.362Z,2.93
2023-01-11T12:53:09.268Z,3.20
2023-01-11T12:56:12.971Z,3.37
2023-01-11T12:59:17.212Z,2.68
2023-01-11T13:02:21.243Z,2.81
2023-01-11T13:05:25.085Z,2.68
2023-01-11T13:08:29.258Z,2.73
2023-01-11T13:11:33.182Z,2.83
2023-01-11T13:14:37.385Z,3.07
2023-01-11T13:17:41.360Z,2.97
2023-01-11T13:21:00.131Z,2.97
2023-01-11T13:24:05.852Z,2.87
2023-01-11T13:27:10.070Z,2.77
2023-01-11T13:30:15.294Z,2.91
2023-01-11T13:33:19.430Z,2.85
2023-01-11T13:36:24.102Z,3.14
2023-01-11T13:39:27.600Z,3.01
2023-01-11T13:42:31.493Z,2.70
2023-01-11T13:45:35.753Z,2.70
2023-01-11T13:48:39.598Z,2.87
2023-01-11T13:51:43.378Z,2.96
2023-01-11T13:54:47.617Z,3.12
2023-01-11T13:57:51.417Z,3.53
2023-01-11T14:00:55.351Z,2.77
2023-01-11T14:03:59.346Z,2.92
2023-01-11T14:07:04.295Z,2.79
2023-01-11T14:10:08.362Z,2.70
2023-01-11T14:13:12.556Z,2.95
2023-01-11T14:16:16.494Z,2.99
2023-01-11T14:19:20.273Z,3.08
2023-01-11T14:22:24.273Z,2.71
2023-01-11T14:25:28.116Z,2.31
2023-01-11T14:28:32.216Z,2.43
2023-01-11T14:31:36.065Z,2.27
2023-01-11T14:34:39.962Z,1.95
2023-01-11T14:37:44.116Z,1.95
2023-01-11T14:40:48.170Z,2.16
2023-01-11T14:43:52.121Z,2.00
2023-01-11T14:46:56.023Z,1.86
2023-01-11T14:50:00.137Z,1.82
2023-01-11T14:53:04.242Z,1.95
2023-01-11T14:56:08.274Z,1.84
2023-01-11T14:59:12.114Z,2.02
2023-01-11T15:02:16.291Z,2.14
2023-01-11T15:05:20.300Z,2.32
2023-01-11T15:08:24.587Z,2.32
2023-01-11T15:11:28.414Z,2.60
2023-01-11T15:14:32.242Z,2.38
2023-01-11T15:17:36.097Z,2.44
2023-01-11T15:20:42.131Z,2.40
2023-01-11T15:23:46.261Z,2.44
2023-01-11T15:26:49.814Z,2.41
2023-01-11T15:29:53.830Z,2.59
2023-01-11T15:32:57.728Z,2.36
2023-01-11T15:36:01.889Z,1.94
2023-01-11T15:39:06.067Z,2.56
2023-01-11T15:42:10.122Z,1.74
2023-01-11T15:45:14.083Z,1.63
2023-01-11T15:48:18.247Z,2.99
2023-01-11T15:51:22.031Z,2.43
2023-01-11T15:54:25.882Z,1.81
2023-01-11T15:57:29.781Z,1.93
2023-01-11T16:00:34.049Z,1.85
2023-01-11T16:03:38.153Z,2.06
2023-01-11T16:06:42.115Z,2.00
2023-01-11T16:09:47.812Z,1.98
2023-01-11T16:12:51.714Z,2.19
2023-01-11T16:15:55.820Z,2.36
2023-01-11T16:18:59.898Z,2.16
2023-01-11T16:22:03.724Z,2.67
2023-01-11T16:25:07.628Z,2.65
2023-01-11T16:28:11.521Z,2.68
2023-01-11T16:31:15.605Z,2.55
2023-01-11T16:34:19.570Z,2.82
2023-01-11T16:37:23.374Z,3.17
2023-01-11T16:40:27.353Z,3.15
2023-01-11T16:43:31.503Z,2.88
2023-01-11T16:46:35.658Z,3.17
2023-01-11T16:49:39.710Z,3.79
2023-01-11T16:52:43.532Z,3.34
2023-01-11T16:55:47.324Z,3.51
2023-01-11T16:58:51.456Z,3.37
2023-01-11T17:01:55.552Z,3.39
2023-01-11T17:04:59.388Z,3.48
2023-01-11T17:08:03.331Z,3.39
2023-01-11T17:11:07.432Z,3.76
2023-01-11T17:14:11.410Z,3.43
2023-01-11T17:17:15.509Z,3.73
2023-01-11T17:20:19.430Z,3.88
2023-01-11T17:23:23.557Z,4.05
2023-01-11T17:26:27.675Z,4.29
2023-01-11T17:29:31.638Z,4.14
2023-01-11T17:32:35.840Z,4.27
2023-01-11T17:35:39.775Z,4.32
2023-01-11T17:38:43.665Z,5.03
2023-01-11T17:41:48.065Z,4.79
2023-01-11T17:44:52.058Z,4.94
2023-01-11T17:47:56.016Z,4.90
2023-01-11T17:51:00.289Z,5.02
2023-01-11T17:54:04.213Z,5.01
2023-01-11T17:57:08.353Z,5.04
2023-01-11T18:00:12.547Z,4.86
2023-01-11T18:03:17.884Z,5.32
2023-01-11T18:06:22.149Z,5.53
2023-01-11T18:09:26.092Z,5.57
2023-01-11T18:12:30.059Z,5.20
2023-01-11T18:15:34.310Z,5.16
2023-01-11T18:18:38.185Z,5.01
2023-01-11T18:21:42.249Z,4.96
2023-01-11T18:24:46.288Z,5.13
2023-01-11T18:27:50.375Z,5.58
2023-01-11T18:30:54.443Z,6.06
2023-01-11T18:33:57.994Z,6.20
2023-01-11T18:37:02.061Z,5.80
2023-01-11T18:40:06.110Z,6.43
2023-01-11T18:43:10.010Z,6.72
2023-01-11T18:46:13.890Z,7.69
2023-01-11T18:49:18.026Z,8.77
2023-01-11T18:52:22.120Z,8.55
2023-01-11T18:55:25.898Z,8.20
2023-01-11T18:58:29.860Z,7.47
2023-01-11T19:01:46.831Z,7.35
2023-01-11T19:04:57.538Z,7.36
2023-01-11T19:08:01.710Z,9.01
2023-01-11T19:11:05.729Z,11.07
2023-01-11T19:14:09.804Z,14.88
2023-01-11T19:17:13.686Z,12.33
2023-01-11T19:20:17.605Z,9.38
2023-01-11T19:23:21.664Z,7.95
2023-01-11T19:26:25.584Z,7.71
2023-01-11T19:29:29.441Z,7.58
2023-01-11T19:32:33.382Z,8.24
2023-01-11T19:35:37.541Z,7.49
2023-01-11T19:38:41.388Z,6.93
2023-01-11T19:41:45.260Z,6.94
2023-01-11T19:44:49.093Z,6.76
2023-01-11T19:47:53.204Z,7.26
2023-01-11T19:50:57.292Z,6.80
2023-01-11T19:54:01.171Z,7.13
2023-01-11T19:57:05.199Z,7.11
2023-01-11T20:00:09.329Z,6.83
2023-01-11T20:03:13.383Z,7.04
2023-01-11T20:06:17.393Z,7.33
2023-01-11T20:09:21.349Z,8.42
2023-01-11T20:12:25.194Z,9.08
2023-01-11T20:15:29.157Z,9.08
2023-01-11T20:18:33.376Z,9.10
2023-01-11T20:21:37.469Z,9.32
2023-01-11T20:24:41.271Z,9.55
2023-01-11T20:27:45.323Z,9.92
2023-01-11T20:30:49.435Z,10.15
2023-01-11T20:33:53.656Z,10.16
2023-01-11T20:36:57.590Z,9.67
2023-01-11T20:40:01.642Z,10.08
2023-01-11T20:43:05.869Z,9.52
2023-01-11T20:46:10.052Z,10.30
2023-01-11T20:49:13.955Z,10.43
2023-01-11T20:52:17.973Z,10.06
2023-01-11T20:55:22.020Z,10.17
2023-01-11T20:58:26.299Z,10.35
2023-01-11T21:01:30.383Z,9.99
2023-01-11T21:04:34.295Z,9.78
2023-01-11T21:07:38.145Z,10.50
2023-01-11T21:10:42.220Z,10.62
2023-01-11T21:13:46.399Z,9.91
2023-01-11T21:16:50.367Z,10.11
2023-01-11T21:19:54.099Z,9.65
2023-01-11T21:22:58.037Z,9.91
2023-01-11T21:26:01.931Z,10.48
2023-01-11T21:29:06.065Z,10.51
2023-01-11T21:32:10.075Z,10.31
2023-01-11T21:35:14.095Z,8.68
2023-01-11T21:38:18.163Z,9.21
2023-01-11T21:41:22.250Z,9.31
2023-01-11T21:44:27.253Z,8.49
2023-01-11T21:47:31.513Z,8.63
2023-01-11T21:50:35.386Z,8.31
2023-01-11T21:53:39.621Z,7.02
2023-01-11T21:56:43.696Z,6.13
2023-01-11T21:59:47.641Z,6.05
2023-01-11T22:02:51.717Z,5.96
2023-01-11T22:05:55.707Z,6.27
2023-01-11T22:08:59.817Z,6.14
2023-01-11T22:12:03.837Z,6.03
2023-01-11T22:15:07.785Z,5.99
2023-01-11T22:18:11.788Z,5.73
2023-01-11T22:21:15.767Z,5.30
2023-01-11T22:24:19.827Z,5.14
2023-01-11T22:27:28.334Z,4.85
2023-01-11T22:30:32.672Z,4.62
2023-01-11T22:33:36.656Z,4.68
2023-01-11T22:36:40.486Z,4.51
2023-01-11T22:39:44.709Z,4.21
2023-01-11T22:42:48.834Z,4.09
2023-01-11T22:45:52.833Z,3.97
2023-01-11T22:48:57.999Z,4.39
2023-01-11T22:52:01.633Z,4.09
2023-01-11T22:55:06.019Z,3.89
2023-01-11T22:58:10.212Z,3.58
2023-01-11T23:01:14.217Z,3.38
2023-01-11T23:04:18.220Z,3.57
2023-01-11T23:07:22.179Z,3.34
2023-01-11T23:10:26.469Z,3.26
2023-01-11T23:13:30.495Z,3.35
2023-01-11T23:16:34.464Z,3.28
2023-01-11T23:19:38.462Z,3.40
2023-01-11T23:22:42.600Z,3.46
2023-01-11T23:25:46.856Z,3.39
2023-01-11T23:28:51.077Z,3.52
2023-01-11T23:31:55.167Z,3.73
2023-01-11T23:35:03.568Z,3.86
2023-01-11T23:38:07.262Z,3.56
2023-01-11T23:41:11.260Z,3.53
2023-01-11T23:44:15.507Z,3.54
2023-01-11T23:47:19.537Z,3.46
2023-01-11T23:50:23.282Z,3.56
2023-01-11T23:53:27.343Z,3.48
2023-01-11T23:56:31.269Z,3.34
2023-01-11T23:59:35.393Z,3.73
